createdAt,value
2016-12-06T00:00:05.894Z,73.3
2016-12-06T00:01:16.229Z,73.01
2016-12-06T00:02:26.561Z,73.01
2016-12-06T00:03:36.581Z,73.2
2016-12-06T00:04:46.938Z,73.11
2016-12-06T00:05:56.661Z,72.82
2016-12-06T00:07:07.011Z,73.68
2016-12-06T00:08:17.023Z,73.49
2016-12-06T00:09:27.369Z,73.49
2016-12-06T00:10:37.702Z,73.58
2016-12-06T00:11:47.890Z,73.68
2016-12-06T00:12:57.885Z,73.49
2016-12-06T00:14:07.870Z,73.3
2016-12-06T00:15:17.814Z,73.58
2016-12-06T00:16:28.098Z,73.77
2016-12-06T00:17:38.073Z,73.58
2016-12-06T00:18:48.354Z,73.68
2016-12-06T00:19:58.004Z,73.01
2016-12-06T00:21:08.311Z,73.2
2016-12-06T00:22:18.275Z,72.82
2016-12-06T00:23:28.544Z,73.11
2016-12-06T00:24:38.520Z,73.11
2016-12-06T00:25:48.793Z,73.2
2016-12-06T00:26:58.753Z,73.2
2016-12-06T00:28:09.051Z,73.11
2016-12-06T00:29:19.544Z,72.92
2016-12-06T00:30:29.809Z,73.2
2016-12-06T00:31:40.085Z,72.92
2016-12-06T00:32:50.374Z,72.92
2016-12-06T00:34:00.631Z,73.01
2016-12-06T00:35:10.641Z,72.92
2016-12-06T00:36:20.906Z,72.92
2016-12-06T00:37:30.576Z,73.2
2016-12-06T00:38:40.549Z,73.2
2016-12-06T00:39:50.821Z,73.11
2016-12-06T00:41:00.781Z,73.11
2016-12-06T00:42:11.051Z,73.01
2016-12-06T00:43:21.004Z,73.01
2016-12-06T00:44:30.349Z,72.92
2016-12-06T00:45:40.307Z,73.01
2016-12-06T00:46:49.970Z,73.05
2016-12-06T00:48:00.244Z,73.01
2016-12-06T00:49:10.538Z,73.24
2016-12-06T00:50:20.494Z,73.14
2016-12-06T00:51:30.768Z,73.11
2016-12-06T00:52:41.046Z,73.33
2016-12-06T00:53:50.713Z,73.33
2016-12-06T00:55:00.400Z,73.14
2016-12-06T00:56:10.678Z,73.2
2016-12-06T00:57:20.958Z,73.11
2016-12-06T00:58:30.304Z,73.14
2016-12-06T00:59:40.573Z,73.24
2016-12-06T01:00:50.574Z,73.24
2016-12-06T01:02:00.842Z,73.33
2016-12-06T01:03:10.839Z,73.2
2016-12-06T01:04:20.805Z,73.11
2016-12-06T01:05:30.150Z,73.11
2016-12-06T01:06:40.430Z,73.14
2016-12-06T01:07:50.480Z,72.92
2016-12-06T01:09:00.504Z,73.11
2016-12-06T01:10:12.173Z,73.58
2016-12-06T01:11:22.552Z,73.11
2016-12-06T01:12:32.607Z,73.68
2016-12-06T01:13:42.631Z,73.39
2016-12-06T01:14:52.646Z,73.3
2016-12-06T01:16:02.684Z,73.49
2016-12-06T01:17:13.016Z,73.3
2016-12-06T01:18:23.045Z,73.3
2016-12-06T01:19:33.389Z,73.2
2016-12-06T01:20:43.405Z,73.49
2016-12-06T01:21:53.735Z,73.49
2016-12-06T01:23:03.796Z,73.49
2016-12-06T01:24:13.813Z,73.11
2016-12-06T01:25:23.828Z,73.01
2016-12-06T01:26:33.841Z,73.49
2016-12-06T01:27:44.183Z,73.77
2016-12-06T01:28:54.219Z,73.58
2016-12-06T01:30:04.549Z,73.3
2016-12-06T01:31:14.884Z,73.49
2016-12-06T01:32:24.898Z,73.3
2016-12-06T01:33:35.244Z,73.39
2016-12-06T01:34:45.562Z,73.3
2016-12-06T01:35:55.281Z,73.39
2016-12-06T01:37:05.295Z,73.58
2016-12-06T01:38:15.318Z,73.68
2016-12-06T01:39:24.728Z,73.49
2016-12-06T01:40:34.771Z,73.68
2016-12-06T01:41:44.478Z,73.68
2016-12-06T01:42:54.176Z,73.77
2016-12-06T01:44:04.188Z,73.49
2016-12-06T01:45:14.530Z,73.58
2016-12-06T01:46:24.550Z,73.68
2016-12-06T01:47:34.897Z,73.86
2016-12-06T01:48:45.209Z,73.68
2016-12-06T01:49:55.468Z,73.68
2016-12-06T01:51:05.760Z,73.2
2016-12-06T01:52:15.494Z,73.39
2016-12-06T01:53:25.834Z,73.39
2016-12-06T01:54:35.860Z,73.39
2016-12-06T01:55:45.887Z,73.49
2016-12-06T01:56:55.914Z,73.16
2016-12-06T01:58:05.937Z,73.35
2016-12-06T01:59:15.597Z,73.54
2016-12-06T02:00:25.876Z,73.54
2016-12-06T02:01:36.223Z,73.35
2016-12-06T02:02:46.262Z,73.35
2016-12-06T02:03:56.588Z,73.73
2016-12-06T02:05:06.936Z,73.26
2016-12-06T02:06:17.509Z,73.26
2016-12-06T02:07:27.540Z,73.54
2016-12-06T02:08:37.889Z,73.83
2016-12-06T02:09:48.217Z,73.64
2016-12-06T02:10:58.550Z,73.73
2016-12-06T02:12:08.886Z,73.26
2016-12-06T02:13:19.208Z,73.73
2016-12-06T02:14:29.225Z,73.26
2016-12-06T02:15:38.615Z,73.35
2016-12-06T02:16:48.640Z,73.35
2016-12-06T02:17:59.002Z,73.35
2016-12-06T02:19:09.342Z,73.35
2016-12-06T02:20:19.679Z,73.16
2016-12-06T02:21:30.013Z,73.16
2016-12-06T02:22:39.722Z,73.54
2016-12-06T02:23:50.054Z,73.73
2016-12-06T02:25:00.078Z,73.64
2016-12-06T02:26:09.504Z,73.64
2016-12-06T02:27:19.541Z,73.54
2016-12-06T02:28:29.885Z,73.35
2016-12-06T02:29:39.900Z,73.54
2016-12-06T02:30:49.618Z,73.26
2016-12-06T02:31:59.627Z,73.54
2016-12-06T02:33:09.642Z,73.26
2016-12-06T02:34:19.654Z,73.35
2016-12-06T02:35:29.729Z,73.16
2016-12-06T02:36:40.063Z,73.35
2016-12-06T02:37:50.396Z,73.16
2016-12-06T02:39:00.096Z,73.73
2016-12-06T02:40:09.805Z,73.54
2016-12-06T02:41:19.836Z,73.73
2016-12-06T02:42:30.176Z,73.35
2016-12-06T02:43:40.494Z,73.26
2016-12-06T02:44:49.569Z,73.26
2016-12-06T02:45:59.895Z,73.35
2016-12-06T02:47:10.243Z,73.35
2016-12-06T02:48:20.559Z,73.26
2016-12-06T02:49:30.270Z,73.26
2016-12-06T02:50:40.589Z,73.73
2016-12-06T02:51:50.929Z,73.45
2016-12-06T02:53:00.634Z,73.45
2016-12-06T02:54:10.960Z,73.45
2016-12-06T02:55:21.313Z,72.97
2016-12-06T02:56:31.026Z,73.16
2016-12-06T02:57:41.048Z,73.45
2016-12-06T02:58:51.376Z,73.54
2016-12-06T03:00:01.071Z,73.54
2016-12-06T03:01:11.086Z,73.35
2016-12-06T03:33:02.561Z,71.88
2016-12-06T03:34:12.269Z,71.79
2016-12-06T03:35:22.300Z,73.49
2016-12-06T03:36:32.308Z,74.24
2016-12-06T03:37:42.022Z,74.81
2016-12-06T03:38:52.348Z,75.19
2016-12-06T03:40:02.698Z,74.81
2016-12-06T03:41:12.745Z,75.57
2016-12-06T03:42:22.125Z,75.7
2016-12-06T03:43:32.148Z,75.51
2016-12-06T03:44:42.170Z,75.7
2016-12-06T03:45:51.870Z,75.04
2016-12-06T03:47:02.223Z,75.13
2016-12-06T03:48:12.283Z,75.36
2016-12-06T03:49:22.622Z,75.17
2016-12-06T03:50:32.964Z,74.79
2016-12-06T03:51:43.320Z,74.79
2016-12-06T03:52:53.671Z,75.07
2016-12-06T03:54:03.695Z,74.51
2016-12-06T03:55:13.107Z,74.41
2016-12-06T03:56:23.129Z,74.13
2016-12-06T03:57:33.189Z,74.17
2016-12-06T03:58:43.520Z,74.36
2016-12-06T03:59:53.528Z,73.98
2016-12-06T04:01:03.562Z,74.26
2016-12-06T04:02:13.269Z,74.07
2016-12-06T04:03:23.289Z,74.26
2016-12-06T04:04:33.295Z,74.17
2016-12-06T04:05:43.012Z,73.79
2016-12-06T04:06:53.340Z,73.5
2016-12-06T04:08:03.686Z,73.5
2016-12-06T04:09:14.033Z,73.22
2016-12-06T04:10:23.744Z,73.6
2016-12-06T04:11:34.072Z,73.6
2016-12-06T04:12:44.097Z,73.5
2016-12-06T04:13:54.117Z,73.69
2016-12-06T04:15:04.149Z,73.41
2016-12-06T04:16:14.228Z,73.5
2016-12-06T04:17:24.250Z,73.69
2016-12-06T04:18:33.982Z,73.5
2016-12-06T04:19:44.003Z,73.41
2016-12-06T04:20:54.035Z,73.41
2016-12-06T04:22:04.367Z,73.5
2016-12-06T04:23:14.394Z,73.41
2016-12-06T04:24:24.394Z,73.69
2016-12-06T04:25:34.710Z,73.5
2016-12-06T04:26:45.040Z,73.41
2016-12-06T04:27:55.063Z,73.5
2016-12-06T04:29:04.768Z,73.6
2016-12-06T04:30:14.786Z,73.69
2016-12-06T04:31:24.817Z,73.64
2016-12-06T04:32:34.841Z,73.5
2016-12-06T04:33:44.549Z,73.54
2016-12-06T04:34:54.895Z,73.73
2016-12-06T04:36:05.221Z,73.64
2016-12-06T04:37:14.628Z,73.54
2016-12-06T04:38:24.666Z,73.45
2016-12-06T04:39:34.994Z,73.54
2016-12-06T04:40:45.321Z,73.54
2016-12-06T04:41:55.652Z,73.6
2016-12-06T04:43:06.020Z,73.64
2016-12-06T04:44:15.733Z,73.54
2016-12-06T04:45:25.758Z,73.35
2016-12-06T04:46:35.759Z,73.54
2016-12-06T04:47:46.089Z,73.54
2016-12-06T04:48:56.332Z,73.54
2016-12-06T04:50:06.670Z,73.73
2016-12-06T04:51:16.685Z,73.64
2016-12-06T04:52:26.697Z,73.64
2016-12-06T04:53:36.426Z,73.35
2016-12-06T04:54:46.454Z,73.64
2016-12-06T04:55:56.490Z,73.54
2016-12-06T04:57:06.849Z,73.54
2016-12-06T04:58:17.194Z,73.64
2016-12-06T04:59:27.518Z,73.64
2016-12-06T05:00:37.231Z,73.73
2016-12-06T05:01:47.254Z,73.16
2016-12-06T05:02:56.965Z,73.26
2016-12-06T05:04:06.982Z,73.64
2016-12-06T05:05:17.342Z,73.16
2016-12-06T05:06:27.367Z,73.35
2016-12-06T05:07:37.704Z,73.26
2016-12-06T05:08:47.728Z,73.26
2016-12-06T05:09:57.426Z,73.45
2016-12-06T05:11:07.795Z,73.64
2016-12-06T05:12:18.137Z,73.73
2016-12-06T05:13:27.848Z,73.16
2016-12-06T05:14:37.885Z,73.35
2016-12-06T05:15:47.906Z,73.35
2016-12-06T05:16:57.955Z,73.49
2016-12-06T05:18:07.973Z,73.49
2016-12-06T05:19:18.027Z,73.39
2016-12-06T05:20:27.969Z,73.3
2016-12-06T05:21:38.323Z,73.11
2016-12-06T05:22:48.639Z,73.68
2016-12-06T05:23:58.656Z,73.49
2016-12-06T05:25:08.670Z,73.39
2016-12-06T05:26:18.996Z,73.49
2016-12-06T05:27:29.321Z,73.39
2016-12-06T05:28:39.342Z,73.39
2016-12-06T05:29:49.680Z,73.49
2016-12-06T05:31:00.019Z,73.58
2016-12-06T05:32:10.359Z,73.77
2016-12-06T05:33:20.398Z,73.39
2016-12-06T05:34:30.775Z,73.39
2016-12-06T05:35:40.806Z,73.58
2016-12-06T05:36:50.813Z,73.68
2016-12-06T05:38:01.139Z,73.3
2016-12-06T05:39:11.168Z,73.86
2016-12-06T05:40:21.496Z,73.39
2016-12-06T05:41:31.846Z,73.39
2016-12-06T05:42:41.541Z,73.2
2016-12-06T05:43:51.552Z,73.3
2016-12-06T05:45:01.580Z,73.3
2016-12-06T05:46:11.615Z,73.86
2016-12-06T05:47:21.350Z,73.68
2016-12-06T05:48:31.682Z,73.77
2016-12-06T05:49:42.005Z,73.39
2016-12-06T05:50:52.040Z,73.77
2016-12-06T05:52:02.050Z,73.3
2016-12-06T05:53:11.750Z,73.3
2016-12-06T05:54:21.456Z,73.3
2016-12-06T05:55:31.475Z,73.2
2016-12-06T05:56:41.500Z,73.58
2016-12-06T05:57:51.841Z,73.68
2016-12-06T05:59:01.863Z,73.58
2016-12-06T06:00:12.195Z,73.68
2016-12-06T06:01:22.212Z,73.11
2016-12-06T06:02:32.234Z,73.3
2016-12-06T06:03:42.266Z,73.68
2016-12-06T06:04:52.619Z,73.2
2016-12-06T06:06:02.976Z,73.2
2016-12-06T06:07:13.006Z,73.3
2016-12-06T06:08:23.345Z,73.2
2016-12-06T06:09:33.706Z,73.2
2016-12-06T06:10:44.046Z,73.3
2016-12-06T06:11:53.756Z,73.39
2016-12-06T06:13:03.769Z,73.11
2016-12-06T06:14:13.798Z,73.68
2016-12-06T06:15:23.846Z,73.3
2016-12-06T06:16:34.189Z,73.3
2016-12-06T06:17:43.936Z,73.68
2016-12-06T06:18:54.276Z,73.68
2016-12-06T06:20:04.643Z,73.68
2016-12-06T06:21:14.668Z,73.77
2016-12-06T06:22:24.373Z,73.2
2016-12-06T06:23:34.396Z,73.39
2016-12-06T06:24:44.411Z,73.2
2016-12-06T06:25:54.752Z,73.39
2016-12-06T06:27:04.803Z,73.39
2016-12-06T06:28:15.194Z,73.68
2016-12-06T06:29:25.525Z,73.2
2016-12-06T06:30:35.880Z,73.58
2016-12-06T06:31:45.599Z,73.58
2016-12-06T06:32:55.625Z,73.68
2016-12-06T06:34:05.952Z,73.11
2016-12-06T06:35:16.283Z,73.2
2016-12-06T06:36:26.300Z,73.3
2016-12-06T06:37:36.628Z,73.11
2016-12-06T06:38:46.974Z,73.01
2016-12-06T06:39:57.536Z,73.2
2016-12-06T06:41:07.567Z,72.92
2016-12-06T06:42:17.264Z,72.92
2016-12-06T06:43:27.278Z,73.01
2016-12-06T06:44:37.294Z,73.2
2016-12-06T06:45:47.315Z,73.01
2016-12-06T06:46:57.350Z,73.11
2016-12-06T06:48:07.407Z,73.39
2016-12-06T06:49:17.451Z,73.39
2016-12-06T06:50:27.460Z,73.49
2016-12-06T06:51:37.495Z,73.49
2016-12-06T06:52:47.210Z,73.49
2016-12-06T06:53:57.230Z,73.2
2016-12-06T06:55:07.257Z,73.11
2016-12-06T06:56:16.955Z,73.39
2016-12-06T06:57:26.971Z,73.68
2016-12-06T06:58:36.999Z,73.39
2016-12-06T06:59:46.706Z,73.3
2016-12-06T07:00:56.736Z,73.3
2016-12-06T07:02:06.477Z,73.86
2016-12-06T07:03:16.515Z,73.68
2016-12-06T07:04:26.847Z,73.39
2016-12-06T07:05:37.194Z,73.39
2016-12-06T07:06:47.546Z,73.3
2016-12-06T07:07:57.923Z,73.39
2016-12-06T07:09:07.927Z,73.39
2016-12-06T07:10:17.969Z,73.3
2016-12-06T07:11:28.315Z,73.49
2016-12-06T07:12:38.009Z,73.3
2016-12-06T07:13:48.344Z,73.2
2016-12-06T07:14:58.667Z,72.92
2016-12-06T07:16:08.706Z,73.11
2016-12-06T07:17:19.052Z,73.2
2016-12-06T07:18:28.810Z,72.44
2016-12-06T07:19:38.513Z,72.63
2016-12-06T07:20:48.534Z,72.73
2016-12-06T07:21:58.560Z,73.01
2016-12-06T07:23:08.578Z,72.48
2016-12-06T07:24:18.292Z,72.25
2016-12-06T07:25:28.299Z,72.77
2016-12-06T07:26:37.998Z,72.77
2016-12-06T07:27:48.339Z,72.96
2016-12-06T07:28:58.683Z,72.48
2016-12-06T07:30:09.030Z,72.48
2016-12-06T07:31:19.047Z,72.48
2016-12-06T07:32:29.388Z,72.57
2016-12-06T07:33:39.753Z,72.38
2016-12-06T07:34:50.142Z,72.57
2016-12-06T07:36:00.165Z,73.43
2016-12-06T07:37:09.917Z,72.77
2016-12-06T07:38:19.944Z,72.67
2016-12-06T07:39:29.662Z,73.24
2016-12-06T07:40:39.367Z,73.14
2016-12-06T07:41:49.949Z,73.11
2016-12-06T07:42:59.967Z,72.73
2016-12-06T07:44:09.656Z,72.67
2016-12-06T07:45:19.410Z,72.57
2016-12-06T07:46:29.456Z,72.48
2016-12-06T07:47:39.765Z,72.48
2016-12-06T07:48:49.788Z,72.86
2016-12-06T07:49:59.516Z,72.67
2016-12-06T07:51:09.867Z,72.67
2016-12-06T07:52:19.877Z,72.86
2016-12-06T07:53:29.917Z,72.57
2016-12-06T07:54:39.945Z,73.33
2016-12-06T07:55:50.289Z,73.05
2016-12-06T07:57:00.316Z,73.11
2016-12-06T07:58:10.064Z,73.24
2016-12-06T07:59:20.089Z,73.14
2016-12-06T08:00:30.119Z,73.68
2016-12-06T08:01:40.135Z,73.14
2016-12-06T08:02:49.850Z,73.01
2016-12-06T08:04:00.207Z,73.11
2016-12-06T08:05:09.954Z,73.2
2016-12-06T08:06:20.287Z,73.2
2016-12-06T08:07:30.618Z,73.58
2016-12-06T08:08:40.639Z,73.11
2016-12-06T08:09:50.670Z,73.68
2016-12-06T08:11:00.998Z,73.49
2016-12-06T08:12:11.338Z,73.39
2016-12-06T08:13:21.725Z,73.3
2016-12-06T08:14:31.443Z,73.58
2016-12-06T08:15:41.789Z,73.58
2016-12-06T08:16:51.805Z,73.49
2016-12-06T08:18:01.842Z,73.01
2016-12-06T08:19:11.874Z,73.11
2016-12-06T08:20:22.218Z,73.2
2016-12-06T08:21:32.244Z,73.11
2016-12-06T08:22:42.260Z,73.11
2016-12-06T08:23:52.309Z,73.3
2016-12-06T08:25:02.319Z,72.53
2016-12-06T08:26:12.059Z,72.63
2016-12-06T08:27:22.096Z,72.38
2016-12-06T08:28:32.424Z,72.57
2016-12-06T08:29:42.444Z,72.19
2016-12-06T08:30:52.526Z,72.57
2016-12-06T08:32:02.870Z,72.57
2016-12-06T08:33:13.227Z,72.77
2016-12-06T08:34:23.273Z,72.77
2016-12-06T08:35:33.613Z,72.77
2016-12-06T08:36:43.995Z,72.86
2016-12-06T08:37:54.348Z,72.77
2016-12-06T08:39:04.359Z,72.77
2016-12-06T08:40:14.391Z,72.86
2016-12-06T08:41:24.712Z,72.57
2016-12-06T08:42:35.032Z,72.77
2016-12-06T08:43:45.370Z,72.96
2016-12-06T08:44:55.392Z,72.29
2016-12-06T08:46:05.764Z,72.61
2016-12-06T08:47:15.807Z,72.61
2016-12-06T08:48:25.822Z,72.52
2016-12-06T08:49:35.843Z,72.14
2016-12-06T08:50:46.170Z,71.76
2016-12-06T08:51:56.181Z,72.33
2016-12-06T08:53:06.201Z,72.42
2016-12-06T08:54:16.530Z,72.04
2016-12-06T08:55:26.585Z,72.52
2016-12-06T08:56:36.918Z,72.42
2016-12-06T08:57:47.487Z,72.52
2016-12-06T08:58:57.809Z,72.8
2016-12-06T09:00:08.148Z,72.71
2016-12-06T09:01:18.503Z,72.99
2016-12-06T09:02:28.532Z,72.8
2016-12-06T09:03:38.572Z,72.61
2016-12-06T09:04:47.983Z,72.71
2016-12-06T09:05:58.347Z,73.08
2016-12-06T09:07:08.675Z,73.18
2016-12-06T09:08:18.682Z,72.8
2016-12-06T09:09:28.402Z,72.89
2016-12-06T09:10:38.425Z,72.71
2016-12-06T09:11:47.839Z,72.61
2016-12-06T09:12:57.883Z,72.23
2016-12-06T09:14:07.930Z,72.04
2016-12-06T09:15:17.967Z,72.42
2016-12-06T09:16:28.302Z,71.98
2016-12-06T09:17:38.637Z,71.51
2016-12-06T09:18:48.961Z,70.78
2016-12-06T09:19:59.022Z,69.65
2016-12-06T09:21:09.353Z,69.84
2016-12-06T09:22:19.376Z,69.49
2016-12-06T09:23:29.739Z,69.3
2016-12-06T09:24:40.076Z,69.21
2016-12-06T09:25:50.113Z,69.53
2016-12-06T09:27:00.148Z,70.1
2016-12-06T09:28:10.501Z,69.91
2016-12-06T09:29:20.557Z,69.91
2016-12-06T09:30:30.592Z,70.44
2016-12-06T09:31:40.945Z,70.67
2016-12-06T09:32:51.288Z,70.38
2016-12-06T09:34:01.625Z,70.67
2016-12-06T09:35:11.034Z,70.48
2016-12-06T09:36:21.076Z,70.29
2016-12-06T09:37:31.402Z,70.48
2016-12-06T09:38:41.426Z,70.29
2016-12-06T09:39:51.776Z,70.29
2016-12-06T09:41:02.163Z,70.67
2016-12-06T09:42:12.422Z,70.38
2016-12-06T09:43:22.772Z,70.51
2016-12-06T09:44:33.100Z,70.29
2016-12-06T09:46:52.619Z,70.61
2016-12-06T09:48:02.953Z,70.51
2016-12-06T09:49:12.970Z,70.51
2016-12-06T09:50:22.064Z,70.51
2016-12-06T09:51:32.407Z,70.51
2016-12-06T09:52:42.754Z,70.99
2016-12-06T09:53:53.328Z,71.23
2016-12-06T09:55:03.692Z,70.86
2016-12-06T09:56:13.083Z,70.48
2016-12-06T09:57:23.089Z,70.95
2016-12-06T09:58:33.414Z,71.08
2016-12-06T09:59:43.754Z,70.99
2016-12-06T10:00:53.826Z,71.18
2016-12-06T10:02:03.859Z,71.18
2016-12-06T10:03:14.189Z,70.61
2016-12-06T10:04:24.509Z,70.42
2016-12-06T10:05:34.562Z,70.51
2016-12-06T10:06:44.270Z,70.99
2016-12-06T10:07:54.611Z,71.27
2016-12-06T10:09:05.181Z,71.27
2016-12-06T10:10:15.225Z,71.43
2016-12-06T10:11:25.244Z,72
2016-12-06T10:12:34.955Z,71.71
2016-12-06T10:13:44.977Z,71.81
2016-12-06T10:14:55.312Z,71.81
2016-12-06T10:16:05.571Z,71.43
2016-12-06T10:17:15.845Z,71.71
2016-12-06T10:18:25.582Z,71.71
2016-12-06T10:19:35.594Z,71.84
2016-12-06T10:20:45.318Z,71.23
2016-12-06T10:21:55.666Z,71.43
2016-12-06T10:23:05.723Z,72
2016-12-06T10:24:16.078Z,71.81
2016-12-06T10:25:26.423Z,72
2016-12-06T10:26:36.139Z,71.62
2016-12-06T10:27:46.507Z,71.62
2016-12-06T10:28:56.888Z,72
2016-12-06T10:30:06.649Z,72.38
2016-12-06T10:31:17.096Z,71.96
2016-12-06T10:32:27.449Z,72.81
2016-12-06T10:33:37.178Z,72.63
2016-12-06T10:34:47.216Z,73
2016-12-06T10:35:57.609Z,72.81
2016-12-06T10:37:07.646Z,72.91
2016-12-06T10:38:17.659Z,72.91
2016-12-06T10:39:28.001Z,72.81
2016-12-06T10:40:38.363Z,72.44
2016-12-06T10:41:48.700Z,72.72
2016-12-06T10:42:58.742Z,72.44
2016-12-06T10:44:08.500Z,72.53
2016-12-06T10:45:18.575Z,72.53
2016-12-06T10:46:27.979Z,72.44
2016-12-06T10:47:38.330Z,72.44
2016-12-06T10:48:48.032Z,72.34
2016-12-06T10:49:58.051Z,72.25
2016-12-06T10:51:07.465Z,72.53
2016-12-06T10:52:17.510Z,72.53
2016-12-06T10:53:27.818Z,72.91
2016-12-06T10:54:38.133Z,72.72
2016-12-06T10:55:48.447Z,72.15
2016-12-06T10:56:58.431Z,72.15
2016-12-06T10:58:08.418Z,72.15
2016-12-06T10:59:18.127Z,72.72
2016-12-06T11:00:28.149Z,72.81
2016-12-06T11:01:38.177Z,72.72
2016-12-06T11:02:48.582Z,72.34
2016-12-06T11:03:58.298Z,72.53
2016-12-06T11:05:08.608Z,72.44
2016-12-06T11:06:18.944Z,72.53
2016-12-06T11:07:28.669Z,72.81
2016-12-06T11:08:39.125Z,72.25
2016-12-06T11:09:49.438Z,72.4
2016-12-06T11:10:59.795Z,72.49
2016-12-06T11:12:10.126Z,72.68
2016-12-06T11:13:20.447Z,72.06
2016-12-06T11:14:30.765Z,72.34
2016-12-06T11:15:41.125Z,72.44
2016-12-06T11:16:51.444Z,72.25
2016-12-06T11:18:01.471Z,72.15
2016-12-06T11:19:11.516Z,72.91
2016-12-06T11:20:21.860Z,72.53
2016-12-06T11:21:32.191Z,72.59
2016-12-06T11:22:41.908Z,73.25
2016-12-06T11:23:52.234Z,72.88
2016-12-06T11:25:02.246Z,72.78
2016-12-06T11:26:12.275Z,72.78
2016-12-06T11:27:22.290Z,72.59
2016-12-06T11:28:32.631Z,72.11
2016-12-06T11:29:42.961Z,71.86
2016-12-06T11:30:52.687Z,71.96
2016-12-06T11:32:02.404Z,71.77
2016-12-06T11:33:12.401Z,70.92
2016-12-06T11:34:22.101Z,70.95
2016-12-06T11:35:32.112Z,70.95
2016-12-06T11:36:41.908Z,71.14
2016-12-06T11:37:52.245Z,70.57
2016-12-06T11:39:02.309Z,70.57
2016-12-06T11:40:12.631Z,70.76
2016-12-06T11:41:22.958Z,71.04
2016-12-06T11:42:33.312Z,71.33
2016-12-06T11:43:43.013Z,71.04
2016-12-06T11:44:53.003Z,71.71
2016-12-06T11:46:03.315Z,71.62
2016-12-06T11:47:13.324Z,71.81
2016-12-06T11:48:23.354Z,72.19
2016-12-06T11:49:33.414Z,71.77
2016-12-06T11:50:43.113Z,71.81
2016-12-06T11:51:53.421Z,71.86
2016-12-06T11:53:03.740Z,71.67
2016-12-06T11:54:13.760Z,71.96
2016-12-06T11:55:23.816Z,72.25
2016-12-06T11:56:33.824Z,72.25
2016-12-06T11:57:43.834Z,72.34
2016-12-06T11:58:54.169Z,73
2016-12-06T12:00:03.972Z,72.72
2016-12-06T12:01:14.287Z,72.97
2016-12-06T12:02:24.635Z,73.07
2016-12-06T12:03:34.976Z,73.35
2016-12-06T12:04:45.295Z,72.88
2016-12-06T12:05:55.611Z,72.68
2016-12-06T12:07:05.949Z,72.11
2016-12-06T12:08:16.288Z,72.78
2016-12-06T12:09:26.345Z,73.07
2016-12-06T12:10:36.681Z,72.88
2016-12-06T12:11:45.885Z,72.68
2016-12-06T12:12:56.208Z,71.86
2016-12-06T12:14:05.903Z,72.59
2016-12-06T12:15:15.992Z,72.4
2016-12-06T12:16:26.045Z,72.3
2016-12-06T12:17:36.646Z,72.97
2016-12-06T12:18:46.360Z,72.88
2016-12-06T12:19:56.766Z,72.59
2016-12-06T12:21:06.771Z,72.64
2016-12-06T12:22:17.099Z,72.88
2016-12-06T12:23:27.262Z,72.68
2016-12-06T12:24:36.961Z,72.64
2016-12-06T12:25:47.086Z,72.93
2016-12-06T12:26:57.416Z,73.07
2016-12-06T12:28:07.161Z,72.4
2016-12-06T12:29:17.167Z,72.11
2016-12-06T12:30:27.205Z,72.59
2016-12-06T12:31:37.210Z,72.11
2016-12-06T12:32:47.341Z,71.3
2016-12-06T12:33:57.354Z,71.67
2016-12-06T12:35:07.156Z,71.48
2016-12-06T12:36:17.486Z,71.58
2016-12-06T12:37:27.202Z,71.2
2016-12-06T12:38:37.542Z,70.82
2016-12-06T12:39:47.893Z,70.57
2016-12-06T12:40:57.943Z,70.19
2016-12-06T12:42:07.982Z,69.27
2016-12-06T12:43:17.699Z,68.65
2016-12-06T12:44:27.439Z,68.36
2016-12-06T12:45:37.803Z,67.92
2016-12-06T12:46:48.138Z,67.92
2016-12-06T12:47:58.176Z,68.87
2016-12-06T12:49:08.203Z,69.06
2016-12-06T12:50:18.549Z,69.73
2016-12-06T12:51:28.876Z,69.98
2016-12-06T12:52:38.905Z,70.64
2016-12-06T12:53:49.244Z,70.61
2016-12-06T12:54:59.336Z,71.46
2016-12-06T12:56:09.404Z,71.94
2016-12-06T12:57:18.775Z,71.94
2016-12-06T12:58:29.128Z,71.94
2016-12-06T12:59:39.222Z,71.9
2016-12-06T13:00:49.256Z,72.47
2016-12-06T13:01:59.254Z,72.28
2016-12-06T13:03:09.257Z,72.75
2016-12-06T13:04:19.576Z,72.75
2016-12-06T13:05:29.589Z,72.66
2016-12-06T13:06:39.715Z,72.75
2016-12-06T13:07:49.420Z,72.72
2016-12-06T13:08:59.450Z,72.44
2016-12-06T13:10:09.770Z,72.53
2016-12-06T13:11:20.115Z,72.72
2016-12-06T13:12:30.466Z,72.34
2016-12-06T13:13:40.479Z,72.72
2016-12-06T13:14:50.827Z,72.72
2016-12-06T13:16:00.543Z,72.53
2016-12-06T13:17:10.577Z,72.15
2016-12-06T13:18:20.648Z,72.15
2016-12-06T13:19:30.685Z,72.91
2016-12-06T13:20:40.383Z,72.44
2016-12-06T13:21:50.785Z,73.19
2016-12-06T13:23:01.176Z,72.34
2016-12-06T13:24:10.895Z,72.63
2016-12-06T13:25:20.955Z,72.53
2016-12-06T13:26:31.300Z,72.72
2016-12-06T13:27:40.704Z,72.81
2016-12-06T13:28:51.045Z,72.91
2016-12-06T13:30:01.072Z,73
2016-12-06T13:31:11.135Z,72.81
2016-12-06T13:32:21.493Z,72.63
2016-12-06T13:33:31.537Z,72.72
2016-12-06T13:34:41.903Z,72.72
2016-12-06T13:35:51.629Z,72.91
2016-12-06T13:37:01.644Z,72.53
2016-12-06T13:38:11.690Z,72.81
2016-12-06T13:39:21.413Z,72.63
2016-12-06T13:40:31.443Z,72.72
2016-12-06T13:41:41.502Z,72.81
2016-12-06T13:42:51.850Z,72.53
2016-12-06T13:44:01.872Z,72.44
2016-12-06T13:45:12.195Z,72.06
2016-12-06T13:46:21.604Z,72.15
2016-12-06T13:47:31.637Z,72.15
2016-12-06T13:48:41.990Z,72.15
2016-12-06T13:49:52.351Z,73.1
2016-12-06T13:51:02.713Z,73.1
2016-12-06T13:52:12.127Z,72.44
2016-12-06T13:53:22.463Z,72.81
2016-12-06T13:54:32.814Z,73
2016-12-06T13:55:43.207Z,72.91
2016-12-06T13:56:53.219Z,72.91
2016-12-06T13:58:03.811Z,72.72
2016-12-06T13:59:14.171Z,72.91
2016-12-06T14:00:24.189Z,73.07
2016-12-06T14:01:34.532Z,72.88
2016-12-06T14:02:44.907Z,72.59
2016-12-06T14:03:55.258Z,72.59
2016-12-06T14:05:04.970Z,72.68
2016-12-06T14:06:15.322Z,72.97
2016-12-06T14:07:25.056Z,72.78
2016-12-06T14:08:35.424Z,72.68
2016-12-06T14:09:45.479Z,72.68
2016-12-06T14:10:55.837Z,72.68
2016-12-06T14:12:05.875Z,72.88
2016-12-06T14:13:16.221Z,73.25
2016-12-06T14:14:26.248Z,73.07
2016-12-06T14:15:35.650Z,73.22
2016-12-06T14:16:45.981Z,73.6
2016-12-06T14:17:55.695Z,73.6
2016-12-06T14:19:06.036Z,73.5
2016-12-06T14:20:16.357Z,73.5
2016-12-06T14:21:26.692Z,73.41
2016-12-06T14:22:36.090Z,73.31
2016-12-06T14:23:46.460Z,73.31
2016-12-06T14:24:56.473Z,73.69
2016-12-06T14:26:06.545Z,73.79
2016-12-06T14:27:16.926Z,73.88
2016-12-06T14:28:26.651Z,73.88
2016-12-06T14:29:36.678Z,73.37
2016-12-06T14:30:47.007Z,73.46
2016-12-06T14:31:57.038Z,73.27
2016-12-06T14:33:07.372Z,73.46
2016-12-06T14:34:17.700Z,73.37
2016-12-06T14:35:28.031Z,73.46
2016-12-06T14:36:38.407Z,73.75
2016-12-06T14:37:48.402Z,73.75
2016-12-06T14:38:58.153Z,73.37
2016-12-06T14:40:08.487Z,73.46
2016-12-06T14:41:18.522Z,73.65
2016-12-06T14:42:28.555Z,73.65
2016-12-06T14:43:38.567Z,73.37
2016-12-06T14:44:48.934Z,73.46
2016-12-06T14:45:59.295Z,73.46
2016-12-06T14:47:09.334Z,73.65
2016-12-06T14:48:19.383Z,73.37
2016-12-06T14:49:29.451Z,73.46
2016-12-06T14:50:39.192Z,73.33
2016-12-06T14:51:48.907Z,73.71
2016-12-06T14:52:59.256Z,73.33
2016-12-06T14:54:09.291Z,73.75
2016-12-06T14:55:19.628Z,73.33
2016-12-06T14:56:29.688Z,73.33
2016-12-06T14:57:39.412Z,73.61
2016-12-06T14:58:49.763Z,73.14
2016-12-06T15:00:00.101Z,73.33
2016-12-06T15:01:09.853Z,73.61
2016-12-06T15:02:20.211Z,73.33
2016-12-06T15:03:30.563Z,73.43
2016-12-06T15:04:40.908Z,73.43
2016-12-06T15:05:50.624Z,73.33
2016-12-06T15:07:00.671Z,73.43
2016-12-06T15:08:10.716Z,73.71
2016-12-06T15:09:21.072Z,73.71
2016-12-06T15:10:31.098Z,73.52
2016-12-06T15:11:41.192Z,73.14
2016-12-06T15:12:51.225Z,73.24
2016-12-06T15:14:01.579Z,73.61
2016-12-06T15:15:11.621Z,73.43
2016-12-06T15:16:21.705Z,73.24
2016-12-06T15:17:31.722Z,73.43
2016-12-06T15:18:42.059Z,73.43
2016-12-06T15:19:52.395Z,73.43
2016-12-06T15:21:02.746Z,73.33
2016-12-06T15:22:13.097Z,73.33
2016-12-06T15:23:23.126Z,73.43
2016-12-06T15:24:33.163Z,73.43
2016-12-06T15:25:43.513Z,73.43
2016-12-06T15:26:53.565Z,73.71
2016-12-06T15:28:03.910Z,73.71
2016-12-06T15:29:14.045Z,73.8
2016-12-06T15:30:23.775Z,73.24
2016-12-06T15:31:33.536Z,73.43
2016-12-06T15:32:43.582Z,73.43
2016-12-06T15:33:53.593Z,73.43
2016-12-06T15:35:03.602Z,73.24
2016-12-06T15:36:13.645Z,73.52
2016-12-06T15:37:23.674Z,73.43
2016-12-06T15:38:33.727Z,73.33